GMMZ

Ouarzazate Airport

Ouarzazate, Morocco
METAR GMMZ 221800Z 12011KT 9999 FEW040 25/M12 Q1010 NOSIG
Observed Flight Rules
Apr-22 @ 18:00 UTC (17 minutes ago) Visual Flight Rules
Wind Visibility Clouds
120° at 11 knots 10,000+ meters
  • Few at 4,000' AGL
Temperatures Readings
Current 25°C / 77°F
Dewpoint -12°C / 10°F
Humidity 8%
Altimeter 29.82" Hg
Pressure 1010 hPa
Elevation 1140
METAR GMMZ 221800Z 12011KT 9999 FEW040 25/M12 Q1010 NOSIG
Observed Flight Rules
Apr-22 @ 18:00 UTC
(17 minutes ago)
VFR
Wind Visibility
120° at 11 knots 10,000+ meters
Clouds
  • Few at 4,000' AGL
Temperature Dewpoint
25°C / 77°F -12°C / 10°F
Humidity Altimeter Pressure
8% 29.82" Hg 1010 hPa